Time;durP1;ratioP1;P1;durP2;ratioP2;P2;SDS_P1;SDS_P2;PMS_P1;PMS_P2;Temp;Humidity;BMP_temperature;BMP_pressure;BME280_temperature;BME280_humidity;BME280_pressure;Samples;Min_cycle;Max_cycle;Signal;HPM_P1;HPM_P2
2023/07/18 00:00:51;;;;;;;3.47;1.63;;;;;;;27.99;42.84;99015.38;4995732;28;20226;-89
2023/07/18 00:03:18;;;;;;;4.60;2.13;;;;;;;28.02;42.01;99025.81;4999850;28;20193;-90
2023/07/18 00:05:44;;;;;;;4.25;2.15;;;;;;;28.13;42.21;99019.91;4997892;28;20197;-90
2023/07/18 00:08:14;;;;;;;3.65;1.70;;;;;;;28.23;42.07;99025.78;5015476;28;20262;-90
2023/07/18 00:10:39;;;;;;;5.85;1.90;;;;;;;28.14;41.72;99021.56;4997693;28;20194;-89
2023/07/18 00:13:05;;;;;;;3.63;1.55;;;;;;;27.96;41.82;99015.78;4998212;28;20269;-90
2023/07/18 00:15:31;;;;;;;6.10;1.98;;;;;;;27.80;41.95;99013.38;4998081;28;20186;-89
2023/07/18 00:18:07;;;;;;;6.55;1.83;;;;;;;28.05;41.60;99017.34;4997981;28;20206;-90
2023/07/18 00:21:05;;;;;;;3.40;1.70;;;;;;;28.21;41.53;99021.63;4997712;28;20175;-90
2023/07/18 00:23:31;;;;;;;4.13;1.92;;;;;;;28.36;41.42;99025.88;4991580;28;20191;-90
2023/07/18 00:26:01;;;;;;;4.90;1.70;;;;;;;28.31;41.92;99012.16;4998171;28;20179;-90
2023/07/18 00:28:28;;;;;;;3.75;1.90;;;;;;;28.29;42.45;99018.78;4998361;28;20171;-90
2023/07/18 00:30:55;;;;;;;4.05;2.13;;;;;;;28.23;42.76;99015.00;5014636;28;20290;-90
2023/07/18 00:33:20;;;;;;;7.05;1.67;;;;;;;28.20;42.69;99014.56;4997771;28;20222;-90
2023/07/18 00:35:46;;;;;;;3.35;1.95;;;;;;;28.18;42.58;99008.53;4997504;28;20568;-90
2023/07/18 00:38:11;;;;;;;3.70;1.90;;;;;;;28.12;42.08;99006.63;5015082;28;20210;-90
2023/07/18 00:40:44;;;;;;;3.75;2.10;;;;;;;28.11;42.89;99008.50;4997809;28;20187;-90
2023/07/18 00:43:19;;;;;;;4.88;1.92;;;;;;;28.09;42.67;99009.72;4998175;28;20171;-90
2023/07/18 00:45:52;;;;;;;3.08;1.88;;;;;;;28.11;42.33;99013.88;4991776;28;20187;-90
2023/07/18 00:48:25;;;;;;;5.10;1.85;;;;;;;28.21;42.23;99006.28;4977851;28;20187;-91
2023/07/18 00:50:53;;;;;;;5.25;1.90;;;;;;;28.17;41.97;99013.06;4995525;28;20247;-90
2023/07/18 00:53:25;;;;;;;6.72;2.13;;;;;;;28.11;42.15;99011.19;4977527;28;20184;-90
2023/07/18 00:55:53;;;;;;;3.25;1.63;;;;;;;28.05;42.89;99011.94;4977826;28;20183;-90
2023/07/18 00:58:19;;;;;;;4.80;1.80;;;;;;;28.04;43.48;99011.13;4958549;28;20257;-90
2023/07/18 01:00:45;;;;;;;5.43;2.00;;;;;;;27.92;43.83;99009.13;4963524;28;20602;-89
2023/07/18 01:03:13;;;;;;;3.40;1.80;;;;;;;27.83;43.59;99007.59;4977824;28;20175;-90
2023/07/18 01:05:39;;;;;;;6.38;2.35;;;;;;;27.78;44.49;99012.69;4977732;28;20184;-90
2023/07/18 01:08:05;;;;;;;4.75;1.83;;;;;;;27.73;43.95;99009.75;4977488;28;20207;-90
2023/07/18 01:10:43;;;;;;;6.10;2.30;;;;;;;27.64;44.70;99008.22;4977547;28;20270;-90
2023/07/18 01:13:18;;;;;;;5.75;2.20;;;;;;;27.57;44.54;98997.38;4985888;28;20663;-89
2023/07/18 01:15:57;;;;;;;;;;;;;;;;;;;;;
2023/07/18 01:18:26;;;;;;;5.68;1.88;;;;;;;27.56;45.02;99006.50;4975022;28;20702;-90
2023/07/18 01:20:52;;;;;;;3.78;1.90;;;;;;;27.56;45.19;98997.59;4978792;28;20199;-90
2023/07/18 01:23:20;;;;;;;3.95;1.90;;;;;;;27.46;45.19;98994.38;5012961;28;20252;-89
2023/07/18 01:25:46;;;;;;;5.78;2.20;;;;;;;27.40;46.17;99004.06;5014018;28;20182;-89
2023/07/18 01:28:12;;;;;;;5.18;2.30;;;;;;;27.33;46.07;99001.25;4997852;28;20200;-89
2023/07/18 01:30:37;;;;;;;3.67;2.20;;;;;;;27.25;45.70;98990.59;4957912;28;20246;-90
2023/07/18 01:33:03;;;;;;;5.13;2.60;;;;;;;27.16;46.40;98983.66;4990135;28;20335;-90
2023/07/18 01:35:28;;;;;;;5.03;2.17;;;;;;;27.15;46.20;98982.00;4957222;28;20259;-89
2023/07/18 01:37:56;;;;;;;5.88;2.30;;;;;;;27.15;45.32;98986.56;4957741;28;20180;-88
2023/07/18 01:40:25;;;;;;;4.15;1.88;;;;;;;27.18;45.79;98978.91;4978471;28;20197;-90
2023/07/18 01:42:52;;;;;;;3.70;2.10;;;;;;;27.15;45.29;98976.59;4994246;28;20640;-90
2023/07/18 01:45:19;;;;;;;6.63;2.45;;;;;;;27.07;45.30;98978.59;4977312;28;20211;-89
2023/07/18 01:47:46;;;;;;;3.80;1.95;;;;;;;27.03;45.59;98961.16;4994123;28;20192;-89
2023/07/18 01:50:12;;;;;;;3.55;2.03;;;;;;;27.08;45.05;98970.31;4976867;28;20175;-89
2023/07/18 01:52:37;;;;;;;4.80;2.00;;;;;;;27.03;45.87;98972.75;5012705;28;20516;-89
2023/07/18 01:55:07;;;;;;;3.20;1.83;;;;;;;26.98;45.71;98971.66;5013678;28;20171;-89
2023/07/18 01:57:35;;;;;;;3.55;1.98;;;;;;;26.94;45.96;98983.81;4996093;28;20186;-90
2023/07/18 02:00:01;;;;;;;3.72;1.80;;;;;;;26.97;46.14;98981.56;4996215;28;20182;-90
2023/07/18 02:02:30;;;;;;;4.10;2.08;;;;;;;26.97;46.05;98981.56;4996150;28;20174;-89
2023/07/18 02:04:58;;;;;;;8.05;1.92;;;;;;;26.97;46.21;98976.19;4996169;28;20187;-89
2023/07/18 02:07:25;;;;;;;3.97;1.88;;;;;;;26.91;45.94;98981.50;5013369;28;20551;-89
2023/07/18 02:09:51;;;;;;;4.47;2.00;;;;;;;26.84;45.97;98976.88;4996150;28;20316;-89
2023/07/18 02:12:17;;;;;;;4.25;2.10;;;;;;;26.78;46.42;98979.47;4996148;28;20633;-90
2023/07/18 02:14:43;;;;;;;3.65;1.75;;;;;;;26.77;46.74;98972.44;4996069;28;20175;-89
2023/07/18 02:17:08;;;;;;;5.13;2.80;;;;;;;26.74;46.86;98983.53;4996055;28;20186;-90
2023/07/18 02:19:35;;;;;;;3.50;1.88;;;;;;;26.67;47.38;98977.22;5013411;28;20155;-89
2023/07/18 02:22:02;;;;;;;6.25;2.35;;;;;;;26.62;47.77;98982.34;4996520;28;20179;-89
2023/07/18 02:24:27;;;;;;;4.72;2.08;;;;;;;26.54;47.92;98977.88;4993722;28;20215;-90
2023/07/18 02:26:54;;;;;;;4.18;2.15;;;;;;;26.44;48.56;98982.69;4992914;28;20199;-89
2023/07/18 02:29:20;;;;;;;5.03;2.25;;;;;;;26.44;48.26;98973.81;4993591;28;20300;-90
2023/07/18 02:31:46;;;;;;;8.30;2.85;;;;;;;26.43;48.64;98980.19;4977242;28;20176;-90
2023/07/18 02:34:11;;;;;;;5.47;2.20;;;;;;;26.43;49.11;98986.41;4993588;28;20172;-89
2023/07/18 02:36:37;;;;;;;8.93;3.63;;;;;;;26.37;50.18;98983.59;4993782;28;20246;-89
2023/07/18 02:39:06;;;;;;;9.57;3.42;;;;;;;26.37;50.50;98987.13;4983230;28;20188;-90
2023/07/18 02:41:32;;;;;;;4.20;2.45;;;;;;;26.31;50.92;98982.50;4958020;28;20181;-89
2023/07/18 02:43:57;;;;;;;6.07;2.90;;;;;;;26.32;50.98;98986.84;4974363;28;20522;-90
2023/07/18 02:46:23;;;;;;;5.68;3.08;;;;;;;26.30;51.46;98978.16;4978460;28;20203;-89
2023/07/18 02:48:48;;;;;;;10.52;2.72;;;;;;;26.26;52.08;98974.16;5016650;28;20171;-89
2023/07/18 02:51:14;;;;;;;6.05;3.33;;;;;;;26.19;52.30;98983.97;4999411;28;20270;-90
2023/07/18 02:53:39;;;;;;;6.70;3.53;;;;;;;26.13;51.85;98969.41;5016986;28;20182;-90
2023/07/18 02:56:05;;;;;;;9.32;2.70;;;;;;;26.13;51.81;98971.25;4991614;28;20178;-89
2023/07/18 02:58:31;;;;;;;7.33;3.20;;;;;;;26.11;52.13;98971.44;4997207;28;20255;-89
2023/07/18 03:00:56;;;;;;;6.00;3.50;;;;;;;26.09;52.25;98969.94;4979928;28;20266;-89
2023/07/18 03:03:22;;;;;;;5.30;2.97;;;;;;;26.05;52.66;98966.78;4996894;28;20210;-90
2023/07/18 03:05:52;;;;;;;7.70;3.13;;;;;;;26.05;52.87;98966.78;4997045;28;20186;-89
2023/07/18 03:08:18;;;;;;;6.25;3.03;;;;;;;26.05;52.40;98964.09;4996798;28;20190;-89
2023/07/18 03:10:43;;;;;;;5.70;3.00;;;;;;;26.08;52.54;98968.25;4996413;28;20183;-89
2023/07/18 03:13:09;;;;;;;5.50;3.07;;;;;;;26.13;52.50;98971.25;4979483;28;20191;-89
2023/07/18 03:15:34;;;;;;;5.30;2.83;;;;;;;26.13;52.72;98969.41;4996664;28;20187;-89
2023/07/18 03:18:00;;;;;;;5.80;3.03;;;;;;;26.12;52.82;98966.91;4996487;28;20653;-89
2023/07/18 03:20:26;;;;;;;4.43;2.80;;;;;;;26.09;52.76;98970.78;4979300;28;20633;-89
2023/07/18 03:22:52;;;;;;;5.97;3.03;;;;;;;26.05;52.41;98971.31;4995459;28;20641;-89
2023/07/18 03:25:19;;;;;;;7.57;3.17;;;;;;;26.03;52.70;98968.81;4996374;28;20190;-89
2023/07/18 03:27:45;;;;;;;5.03;3.47;;;;;;;26.00;53.03;98971.84;4996257;28;20203;-89
2023/07/18 03:30:12;;;;;;;6.97;3.53;;;;;;;25.96;53.12;98973.25;4996217;28;20196;-88
2023/07/18 03:32:39;;;;;;;7.53;3.17;;;;;;;25.95;53.33;98970.72;5001614;28;20274;-89
2023/07/18 03:35:09;;;;;;;10.97;4.00;;;;;;;25.92;53.63;98971.94;4976711;28;20176;-89
2023/07/18 03:37:35;;;;;;;6.40;3.10;;;;;;;25.88;54.00;98977.84;4995322;28;20230;-90
2023/07/18 03:40:02;;;;;;;7.20;3.70;;;;;;;25.89;53.46;98972.28;4996225;28;20183;-89
2023/07/18 03:42:28;;;;;;;7.47;3.77;;;;;;;25.90;53.65;98975.81;4995079;28;20180;-90
2023/07/18 03:44:53;;;;;;;8.37;4.37;;;;;;;25.96;53.76;98973.25;4995940;28;20784;-89
2023/07/18 03:47:19;;;;;;;7.93;4.78;;;;;;;25.98;53.62;98976.59;4978944;28;20203;-90
2023/07/18 03:49:45;;;;;;;11.30;4.87;;;;;;;26.08;53.55;98985.22;4995022;28;20583;-89
2023/07/18 03:52:10;;;;;;;8.83;4.80;;;;;;;26.03;54.33;98978.72;4995893;28;20176;-89
2023/07/18 03:54:36;;;;;;;9.53;5.07;;;;;;;25.91;54.84;98981.03;5012006;28;20564;-90
2023/07/18 03:57:01;;;;;;;7.03;4.20;;;;;;;25.88;55.18;98991.28;5015385;28;20182;-90
2023/07/18 03:59:27;;;;;;;7.10;4.37;;;;;;;25.91;55.01;98981.03;4997445;28;20664;-89
2023/07/18 04:01:53;;;;;;;6.43;3.67;;;;;;;25.95;54.55;98993.06;4997950;28;20186;-89
2023/07/18 04:04:18;;;;;;;5.35;3.72;;;;;;;25.98;54.67;98992.69;4997968;28;20257;-89
2023/07/18 04:06:44;;;;;;;6.33;3.87;;;;;;;26.05;54.80;98993.63;4997633;28;20322;-89
2023/07/18 04:09:10;;;;;;;9.50;4.37;;;;;;;26.06;54.87;98991.78;4998125;28;20194;-89
2023/07/18 04:11:36;;;;;;;8.57;4.77;;;;;;;26.11;54.50;98992.91;5015111;28;20179;-90
2023/07/18 04:14:02;;;;;;;9.30;4.47;;;;;;;26.11;54.64;99006.34;4997823;28;20179;-89
2023/07/18 04:16:27;;;;;;;8.20;5.03;;;;;;;26.14;54.70;98997.97;4997851;28;20510;-90
2023/07/18 04:18:53;;;;;;;7.90;3.83;;;;;;;26.22;54.35;99005.09;5014878;28;20222;-89
2023/07/18 04:21:18;;;;;;;7.30;4.27;;;;;;;26.26;55.31;99002.91;5015567;28;20218;-89
2023/07/18 04:23:44;;;;;;;6.60;3.80;;;;;;;26.34;55.05;99008.16;4997653;28;20233;-89
2023/07/18 04:26:09;;;;;;;5.90;3.60;;;;;;;26.35;54.95;99001.78;5015010;28;20210;-90
2023/07/18 04:28:39;;;;;;;5.88;3.40;;;;;;;26.38;54.57;99001.41;4997372;28;20187;-90
2023/07/18 04:31:05;;;;;;;10.57;4.10;;;;;;;26.45;54.54;98999.66;5014671;28;20179;-89
2023/07/18 04:33:35;;;;;;;9.90;3.72;;;;;;;26.50;54.40;98998.09;4998020;28;20175;-89
2023/07/18 04:36:01;;;;;;;7.30;3.50;;;;;;;26.57;54.68;98987.44;4998274;28;20183;-89
2023/07/18 04:38:26;;;;;;;7.27;3.20;;;;;;;26.67;54.12;98986.13;5014928;28;20175;-89
2023/07/18 04:40:52;;;;;;;11.75;3.42;;;;;;;26.70;53.89;98982.25;5014806;28;20265;-89
2023/07/18 04:43:18;;;;;;;10.70;4.03;;;;;;;26.77;53.58;98994.78;5014893;28;20186;-89
2023/07/18 04:45:45;;;;;;;8.15;3.35;;;;;;;26.83;53.66;98998.59;4997131;28;20189;-89
2023/07/18 04:48:19;;;;;;;9.32;3.70;;;;;;;26.86;54.13;98990.09;4999804;28;20203;-89
2023/07/18 04:50:50;;;;;;;5.80;3.30;;;;;;;26.97;53.51;98995.00;4978063;28;20285;-90
2023/07/18 04:53:15;;;;;;;7.25;3.28;;;;;;;26.98;53.67;98996.69;4994108;28;20176;-90
2023/07/18 04:55:41;;;;;;;10.00;3.43;;;;;;;26.97;53.05;98995.00;4998772;28;20178;-90
2023/07/18 04:58:10;;;;;;;7.40;2.80;;;;;;;27.05;53.16;98997.59;5014641;28;20167;-90
2023/07/18 05:00:36;;;;;;;8.25;2.90;;;;;;;27.10;53.17;98994.34;4996889;28;20179;-90
2023/07/18 05:03:05;;;;;;;4.85;2.65;;;;;;;27.20;53.13;98990.31;4991542;28;20179;-90
2023/07/18 05:05:30;;;;;;;5.55;2.47;;;;;;;27.33;52.75;98989.66;4994553;28;20180;-90
2023/07/18 05:08:03;;;;;;;6.93;2.58;;;;;;;27.40;53.20;98995.97;4993749;28;20214;-91
2023/07/18 05:10:29;;;;;;;6.43;2.80;;;;;;;27.40;52.41;98988.75;4993544;28;20262;-90
2023/07/18 05:12:56;;;;;;;5.85;2.92;;;;;;;27.59;51.88;98997.22;4993700;28;20192;-90
2023/07/18 05:15:23;;;;;;;6.97;1.98;;;;;;;27.77;47.33;98997.59;4977298;28;20242;-90
2023/07/18 05:17:50;;;;;;;4.53;2.20;;;;;;;27.85;47.43;98984.81;4994403;28;20224;-90
2023/07/18 05:20:16;;;;;;;4.35;1.92;;;;;;;28.07;45.80;98988.31;4977166;28;20190;-89
2023/07/18 05:22:43;;;;;;;4.17;2.03;;;;;;;28.17;46.52;98988.81;4977489;28;20187;-89
2023/07/18 05:25:11;;;;;;;8.32;2.65;;;;;;;28.20;46.34;98985.72;4994535;28;20199;-88
2023/07/18 05:27:37;;;;;;;4.35;2.33;;;;;;;28.38;45.60;98990.66;4976906;28;20200;-90
2023/07/18 05:30:06;;;;;;;5.97;3.15;;;;;;;28.55;45.49;98987.44;4977129;28;20218;-90
2023/07/18 05:32:33;;;;;;;4.57;2.10;;;;;;;28.69;45.22;98982.16;5010034;28;20179;-90
2023/07/18 05:34:59;;;;;;;4.53;2.67;;;;;;;28.77;45.69;98990.06;5014114;28;20186;-88
2023/07/18 05:37:25;;;;;;;6.18;2.50;;;;;;;28.83;45.03;98978.47;4996430;28;20244;-89
2023/07/18 05:39:51;;;;;;;5.15;2.42;;;;;;;28.80;44.85;98968.09;5013938;28;20185;-89
2023/07/18 05:42:18;;;;;;;6.28;3.10;;;;;;;28.63;45.02;98973.81;5014001;28;20595;-90
2023/07/18 05:44:44;;;;;;;4.20;2.60;;;;;;;28.64;46.06;98980.84;5013616;28;20582;-90
2023/07/18 05:47:10;;;;;;;5.05;2.78;;;;;;;28.74;46.32;98976.97;4996573;28;20198;-89
2023/07/18 05:49:36;;;;;;;5.60;2.90;;;;;;;28.84;46.20;98972.88;5013712;28;20182;-89
2023/07/18 05:52:01;;;;;;;4.30;2.47;;;;;;;29.02;45.88;98973.16;5013858;28;20175;-89
2023/07/18 05:54:30;;;;;;;5.75;2.67;;;;;;;28.90;44.97;98963.16;5013151;28;20253;-90
2023/07/18 05:56:55;;;;;;;10.23;2.75;;;;;;;28.93;46.29;98963.56;4996301;28;20174;-90
2023/07/18 05:59:30;;;;;;;5.10;2.72;;;;;;;29.09;45.52;98960.50;4996572;28;20182;-90
2023/07/18 06:01:56;;;;;;;11.73;4.03;;;;;;;29.08;45.67;98964.25;5013493;28;20206;-90
2023/07/18 06:04:21;;;;;;;4.75;2.80;;;;;;;29.14;45.59;98965.31;5013628;28;20193;-88
2023/07/18 06:06:47;;;;;;;6.55;3.50;;;;;;;29.17;46.29;98959.50;5013811;28;20294;-90
2023/07/18 06:09:12;;;;;;;12.45;3.78;;;;;;;29.21;45.38;98950.00;4994657;28;20664;-89
2023/07/18 06:11:38;;;;;;;5.40;3.20;;;;;;;29.18;46.01;98961.16;4994400;28;20186;-89
2023/07/18 06:14:11;;;;;;;6.57;3.88;;;;;;;29.29;46.88;98947.09;4976689;28;20276;-90
2023/07/18 06:16:39;;;;;;;14.18;6.68;;;;;;;29.45;46.40;98949.44;4996289;28;20266;-90
2023/07/18 06:19:07;;;;;;;5.95;3.38;;;;;;;29.55;46.35;98941.75;4995991;28;20254;-90
2023/07/18 06:21:32;;;;;;;9.00;4.85;;;;;;;29.72;46.79;98948.41;4997389;28;20700;-90
2023/07/18 06:23:58;;;;;;;6.35;3.67;;;;;;;29.81;45.81;98947.19;5000189;28;20179;-90
2023/07/18 06:26:23;;;;;;;8.40;3.25;;;;;;;29.55;44.88;98943.63;5016045;28;20298;-90
2023/07/18 06:28:54;;;;;;;7.03;3.30;;;;;;;29.69;45.33;98948.81;5016925;28;20187;-89
2023/07/18 06:31:20;;;;;;;10.48;2.90;;;;;;;29.94;44.55;98945.53;4999830;28;20207;-89
2023/07/18 06:33:45;;;;;;;6.25;2.97;;;;;;;29.82;44.57;98954.25;5017776;28;20175;-89
2023/07/18 06:36:14;;;;;;;7.18;3.20;;;;;;;29.83;44.06;98953.22;4999311;28;20203;-89
2023/07/18 06:38:42;;;;;;;4.60;2.63;;;;;;;30.00;44.40;98942.00;5016857;28;20191;-91
2023/07/18 06:41:10;;;;;;;6.05;3.15;;;;;;;30.24;43.52;98950.25;4999618;28;20179;-90
2023/07/18 06:43:36;;;;;;;6.00;2.88;;;;;;;30.46;43.90;98934.66;4999595;28;20187;-90
2023/07/18 06:46:01;;;;;;;6.55;3.22;;;;;;;30.22;42.31;98943.41;5016871;28;20609;-89
2023/07/18 06:48:27;;;;;;;5.47;2.88;;;;;;;30.28;41.56;98947.97;4999443;28;20264;-89
2023/07/18 06:50:53;;;;;;;5.32;3.00;;;;;;;30.26;42.29;98944.66;5017082;28;20177;-89
2023/07/18 06:53:22;;;;;;;4.47;2.70;;;;;;;30.38;41.61;98937.59;5015564;28;20185;-89
2023/07/18 06:55:49;;;;;;;10.68;4.47;;;;;;;30.46;41.95;98934.66;5016093;28;20221;-89
2023/07/18 06:58:15;;;;;;;5.50;2.72;;;;;;;30.60;42.03;98930.88;5017041;28;20171;-90
2023/07/18 07:00:41;;;;;;;4.97;3.20;;;;;;;30.92;42.50;98939.94;5016716;28;20258;-89
2023/07/18 07:03:08;;;;;;;9.48;3.30;;;;;;;31.18;40.46;98930.84;5016335;28;20218;-90
2023/07/18 07:05:41;;;;;;;5.03;3.22;;;;;;;31.33;40.51;98932.22;5016166;28;20179;-90
2023/07/18 07:08:10;;;;;;;4.53;2.83;;;;;;;31.55;40.36;98932.72;4999412;28;20616;-90
2023/07/18 07:10:38;;;;;;;6.07;2.75;;;;;;;31.57;38.98;98936.88;5016243;28;20621;-90
2023/07/18 07:13:08;;;;;;;4.85;2.80;;;;;;;31.82;40.21;98931.44;4964349;28;20271;-90
2023/07/18 07:15:36;;;;;;;4.60;2.83;;;;;;;32.14;40.22;98935.78;4960178;28;20637;-89
2023/07/18 07:18:17;;;;;;;5.75;2.65;;;;;;;32.45;39.30;98936.69;4960317;28;20188;-90
2023/07/18 07:21:40;;;;;;;4.78;3.17;;;;;;;32.68;38.59;98931.44;4976593;28;20551;-90
2023/07/18 07:24:01;;;;;;;4.47;2.72;;;;;;;32.91;37.30;98934.31;4979891;28;20684;-90
2023/07/18 07:30:00;;;;;;;3.42;2.10;;;;;;;33.58;37.66;98935.91;4898717;29;20191;-92
2023/07/18 07:37:12;;;;;;;8.13;2.15;;;;;;;34.31;35.08;98935.53;4804480;29;20200;-93
2023/07/18 07:40:11;;;;;;;4.00;2.28;;;;;;;34.39;35.73;98936.00;4840887;29;20217;-91
2023/07/18 08:11:39;;;;;;;;;;;;;;;;;;;;;
2023/07/18 08:24:45;;;;;;;5.97;2.53;;;;;;;35.95;32.75;98907.44;4615403;31;20209;-92
2023/07/18 08:42:32;;;;;;;;;;;;;;;;;;;;;
2023/07/18 09:02:49;;;;;;;7.18;2.83;;;;;;;38.41;28.69;98881.16;4711338;30;20201;-92
2023/07/18 09:05:48;;;;;;;;;;;;;;;;;;;;;
2023/07/18 09:11:29;;;;;;;7.38;3.05;;;;;;;38.26;28.45;98867.34;4769974;30;20312;-90
2023/07/18 09:14:30;;;;;;;;;;;;;;;;;;;;;
2023/07/18 09:17:04;;;;;;;5.13;3.35;;;;;;;38.25;28.67;98868.44;4847082;29;20187;-91
2023/07/18 09:20:12;;;;;;;5.57;2.90;;;;;;;38.44;29.88;98856.78;4973394;28;20215;-90
2023/07/18 09:22:57;;;;;;;;;;;;;;;;;;;;;
2023/07/18 09:25:36;;;;;;;;;;;;;;;;;;;;;
2023/07/18 09:28:34;;;;;;;6.95;3.30;;;;;;;38.36;29.54;98848.25;4991647;28;20222;-90
2023/07/18 09:31:00;;;;;;;10.90;3.17;;;;;;;38.40;30.25;98849.34;4998924;28;20240;-90
2023/07/18 09:33:26;;;;;;;5.82;3.75;;;;;;;38.41;28.50;98840.06;4996766;28;20186;-91
2023/07/18 09:39:40;;;;;;;5.82;3.38;;;;;;;38.74;30.71;98850.59;4968344;28;20221;-91
2023/07/18 09:42:19;;;;;;;9.10;3.67;;;;;;;38.92;28.93;98841.88;4978010;28;20171;-92
2023/07/18 09:48:43;;;;;;;;;;;;;;;;;;;;;
2023/07/18 09:51:33;;;;;;;6.15;3.95;;;;;;;39.42;28.37;98830.19;5013691;28;20621;-90
2023/07/18 09:55:03;;;;;;;;;;;;;;;;;;;;;
2023/07/18 09:57:56;;;;;;;6.53;3.88;;;;;;;39.59;28.17;98840.88;4956404;28;20180;-92
2023/07/18 10:00:32;;;;;;;7.25;4.35;;;;;;;39.79;26.98;98828.00;4938127;29;20619;-91
2023/07/18 10:03:31;;;;;;;7.65;3.85;;;;;;;39.94;28.09;98818.88;4957588;29;20185;-91
2023/07/18 10:06:16;;;;;;;;;;;;;;;;;;;;;
2023/07/18 10:08:56;;;;;;;5.05;3.45;;;;;;;39.90;28.64;98810.41;4988272;28;20195;-91
2023/07/18 10:11:40;;;;;;;8.02;4.50;;;;;;;40.06;27.53;98802.97;4980976;28;20172;-90
2023/07/18 10:14:05;;;;;;;5.63;3.90;;;;;;;39.97;28.11;98804.59;4986316;28;20234;-90
2023/07/18 10:16:34;;;;;;;9.32;4.05;;;;;;;39.69;27.70;98800.56;5017702;28;20538;-91
2023/07/18 10:19:17;;;;;;;6.80;4.28;;;;;;;39.85;28.38;98798.59;5000137;28;20198;-91
2023/07/18 10:21:46;;;;;;;7.03;3.80;;;;;;;40.38;27.50;98797.09;5017561;28;20166;-90
2023/07/18 10:24:21;;;;;;;6.65;4.45;;;;;;;40.78;26.17;98782.34;5016633;28;20183;-90
2023/07/18 10:26:58;;;;;;;7.13;4.03;;;;;;;40.94;27.65;98790.19;4984551;28;20206;-91
2023/07/18 10:29:46;;;;;;;8.25;4.47;;;;;;;41.06;26.17;98776.94;4980538;28;20184;-91
2023/07/18 10:32:11;;;;;;;6.22;4.13;;;;;;;40.78;26.60;98774.88;4995167;28;20210;-91
2023/07/18 10:35:30;;;;;;;6.68;4.50;;;;;;;40.88;26.41;98771.25;5000175;28;20262;-94
2023/07/18 10:38:09;;;;;;;7.78;4.60;;;;;;;41.14;26.34;98770.00;4999278;28;20558;-91
2023/07/18 10:40:54;;;;;;;9.80;5.05;;;;;;;41.19;26.71;98775.44;5016202;28;20175;-91
2023/07/18 10:43:27;;;;;;;7.78;4.70;;;;;;;41.29;26.59;98766.28;5016871;28;20179;-91
2023/07/18 10:46:13;;;;;;;7.45;5.20;;;;;;;40.68;27.51;98761.22;4999539;28;20187;-93
2023/07/18 10:49:16;;;;;;;;;;;;;;;;;;;;;
2023/07/18 10:51:44;;;;;;;6.40;4.38;;;;;;;40.54;27.95;98759.38;5016675;28;20182;-91
2023/07/18 11:00:58;;;;;;;6.00;4.20;;;;;;;41.99;27.08;98749.06;4899643;29;20210;-91
2023/07/18 11:03:34;;;;;;;6.50;4.45;;;;;;;41.99;25.52;98754.56;4912820;28;20206;-90
2023/07/18 11:06:04;;;;;;;6.40;4.63;;;;;;;42.27;26.18;98739.13;4996394;28;20176;-91
2023/07/18 11:08:30;;;;;;;6.78;4.60;;;;;;;42.06;25.88;98735.75;4994660;28;20715;-90
2023/07/18 11:11:00;;;;;;;7.22;4.30;;;;;;;42.07;25.76;98733.81;4980001;28;20290;-90
2023/07/18 11:13:30;;;;;;;7.50;5.10;;;;;;;42.22;25.67;98728.97;4968635;28;20187;-91
2023/07/18 11:16:05;;;;;;;7.68;4.57;;;;;;;42.26;25.59;98729.19;4990309;28;20194;-90
2023/07/18 11:18:32;;;;;;;8.52;4.18;;;;;;;42.58;25.40;98721.06;4979307;28;20187;-91
2023/07/18 11:21:02;;;;;;;10.13;4.25;;;;;;;42.81;25.25;98717.38;4979597;28;20195;-91
2023/07/18 11:23:28;;;;;;;8.18;4.55;;;;;;;42.83;24.42;98723.41;5012889;28;20190;-91
2023/07/18 11:25:53;;;;;;;6.90;4.25;;;;;;;42.28;26.25;98731.66;4995551;28;20184;-91
2023/07/18 11:28:19;;;;;;;7.07;4.47;;;;;;;42.17;27.49;98725.44;4996657;28;20676;-90
2023/07/18 11:30:44;;;;;;;7.55;4.85;;;;;;;42.74;24.87;98716.94;4996820;28;20191;-89
2023/07/18 11:33:13;;;;;;;11.63;4.20;;;;;;;42.84;24.91;98722.31;4996947;28;20214;-90
2023/07/18 11:35:46;;;;;;;7.22;4.45;;;;;;;42.07;26.40;98725.56;4974124;28;20199;-90
2023/07/18 11:38:15;;;;;;;4.95;3.72;;;;;;;41.75;27.43;98717.97;4992272;28;20169;-91
2023/07/18 11:40:41;;;;;;;7.72;4.82;;;;;;;41.94;26.58;98718.00;4992536;28;20184;-91
2023/07/18 11:43:33;;;;;;;7.70;4.60;;;;;;;42.28;25.78;98713.19;4959939;28;20709;-91
2023/07/18 11:46:39;;;;;;;12.35;4.63;;;;;;;42.41;26.52;98711.63;4977322;28;20184;-92
2023/07/18 11:49:18;;;;;;;;;;;;;;;;;;;;;
2023/07/18 11:51:43;;;;;;;6.68;4.38;;;;;;;42.42;25.43;98708.59;4976959;28;20179;-90
2023/07/18 11:54:09;;;;;;;6.68;4.53;;;;;;;42.63;26.04;98703.63;4984225;28;20691;-91
2023/07/18 11:56:35;;;;;;;9.40;4.20;;;;;;;42.67;24.81;98699.13;4959530;28;20176;-91
2023/07/18 11:59:02;;;;;;;6.38;3.97;;;;;;;42.46;26.23;98689.50;4976463;28;20181;-91
2023/07/18 12:01:27;;;;;;;11.20;5.22;;;;;;;42.63;25.59;98701.69;4961498;28;20192;-91
2023/07/18 12:03:53;;;;;;;10.60;4.85;;;;;;;42.61;25.46;98692.88;4979390;28;20187;-90
2023/07/18 12:06:19;;;;;;;6.20;4.00;;;;;;;42.78;25.85;98684.06;4995672;28;20539;-90
2023/07/18 12:08:45;;;;;;;8.23;4.40;;;;;;;42.84;25.26;98683.69;5001742;28;20183;-91
2023/07/18 12:11:11;;;;;;;8.82;4.78;;;;;;;42.52;25.33;98680.88;4997985;28;20272;-90
2023/07/18 12:13:37;;;;;;;8.88;4.57;;;;;;;42.56;25.72;98684.69;5015158;28;20633;-90
2023/07/18 12:16:03;;;;;;;6.38;4.30;;;;;;;42.05;27.19;98675.47;4998283;28;20206;-90
2023/07/18 12:18:29;;;;;;;6.30;3.50;;;;;;;42.24;25.27;98676.34;5011057;28;20660;-90
2023/07/18 12:20:54;;;;;;;6.38;4.38;;;;;;;42.58;26.41;98676.97;4977914;28;20176;-90
2023/07/18 12:23:20;;;;;;;6.47;4.07;;;;;;;42.80;25.58;98677.13;4995615;28;20176;-90
2023/07/18 12:25:46;;;;;;;6.38;4.32;;;;;;;43.19;25.33;98689.75;5006124;28;20187;-90
2023/07/18 12:28:11;;;;;;;7.00;4.22;;;;;;;43.00;24.92;98689.81;5014720;28;20207;-90
2023/07/18 12:30:37;;;;;;;9.27;4.30;;;;;;;42.73;26.27;98686.91;5014803;28;20663;-90
2023/07/18 12:33:03;;;;;;;6.75;4.10;;;;;;;43.01;26.95;98687.84;5014843;28;20175;-90
2023/07/18 12:35:28;;;;;;;8.88;4.07;;;;;;;42.82;25.91;98691.44;4997706;28;20193;-89
2023/07/18 12:37:54;;;;;;;5.70;4.07;;;;;;;43.22;25.90;98691.88;5013794;28;20228;-90
2023/07/18 12:40:23;;;;;;;6.13;4.10;;;;;;;43.20;24.73;98702.41;4997450;28;20537;-90
2023/07/18 12:42:49;;;;;;;9.00;4.45;;;;;;;42.80;25.80;98696.44;5014768;28;20175;-89
2023/07/18 12:45:14;;;;;;;13.65;5.38;;;;;;;42.55;26.56;98690.50;4997281;28;20183;-90
2023/07/18 12:47:40;;;;;;;16.52;5.47;;;;;;;42.27;26.98;98686.78;4997017;28;20641;-89
2023/07/18 12:50:06;;;;;;;9.07;4.63;;;;;;;42.27;26.60;98683.19;5014305;28;20190;-89
2023/07/18 12:52:33;;;;;;;7.63;4.28;;;;;;;42.10;27.34;98680.91;5014144;28;20652;-89
2023/07/18 12:54:59;;;;;;;8.15;4.20;;;;;;;41.74;28.47;98674.22;5013217;28;20179;-88
2023/07/18 12:57:24;;;;;;;10.65;4.07;;;;;;;40.71;29.30;98680.09;4996837;28;20341;-87
2023/07/18 12:59:50;;;;;;;10.07;4.28;;;;;;;40.46;31.27;98681.09;4995218;28;20198;-87
2023/07/18 13:02:15;;;;;;;6.85;4.05;;;;;;;40.25;31.06;98676.84;4994470;28;20254;-87
2023/07/18 13:04:41;;;;;;;6.85;4.38;;;;;;;40.33;31.21;98671.53;4994449;28;20192;-88
2023/07/18 13:07:07;;;;;;;7.03;4.43;;;;;;;40.32;29.97;98677.34;4994320;28;20607;-89
2023/07/18 13:09:33;;;;;;;6.88;4.47;;;;;;;41.01;29.04;98672.44;4977219;28;20626;-88
2023/07/18 13:11:59;;;;;;;6.22;4.25;;;;;;;41.06;29.60;98679.84;4993339;28;20241;-89
2023/07/18 13:14:24;;;;;;;7.63;4.13;;;;;;;41.20;29.51;98672.53;4994276;28;20175;-88
2023/07/18 13:16:50;;;;;;;6.28;4.05;;;;;;;41.34;27.43;98670.78;4994539;28;20176;-90
2023/07/18 13:19:16;;;;;;;5.25;4.00;;;;;;;41.63;27.64;98666.06;4976806;28;20196;-90
2023/07/18 13:21:42;;;;;;;5.72;4.32;;;;;;;42.01;27.01;98652.41;4994269;28;20188;-90
2023/07/18 13:24:08;;;;;;;9.35;4.47;;;;;;;42.43;27.08;98657.84;4994170;28;20688;-89
2023/07/18 13:26:33;;;;;;;6.05;4.20;;;;;;;42.30;27.37;98661.34;4994018;28;20266;-89
2023/07/18 13:29:00;;;;;;;7.85;5.00;;;;;;;42.32;27.37;98664.66;4994973;28;20214;-87
2023/07/18 13:31:25;;;;;;;9.27;5.00;;;;;;;42.08;27.78;98664.69;5011987;28;20178;-89
2023/07/18 13:33:51;;;;;;;7.00;4.85;;;;;;;42.14;27.72;98665.47;5013677;28;20240;-89
2023/07/18 13:36:16;;;;;;;6.10;5.00;;;;;;;42.54;26.45;98659.38;5013659;28;20175;-89
2023/07/18 13:38:42;;;;;;;6.05;4.70;;;;;;;42.90;24.91;98661.53;5013894;28;20189;-89